Acadiana Regional Airport New Iberia US
ICAO: KARA
IATA: ARA
Category: Medium
Scheduled Services: No

Elevation: 24 ft
TransAlt. 18000 ft.

Airport Communications:
LAFAYETTE APP/DEP:121.1
CLNC DEL:121.7
CTAF:125
GND:121.7
TWR:125
UNICOM:122.95

KARA Zoom In..

Runways:

(A) RW 16 length 8002 ft width 200 ft
---- / hdg 165

(B) RW 34 length 8002 ft width 200 ft
ILS 108.90 / hdg 345

Location; KARA
Day. 03 / Time. 01.53 Zulu
* Altimeter: 30.04
* Temperature: 27° c. 80.6°f.
* Wind from: 190° Speed 05 kn.
Dewpoint: 24° c.
Visibility: 10 Statute Miles.
Clouds: Clear (automated report).

KARA 030153Z AUTO 19005KT 10SM CLR 27/24 A3004 RMK AO2 SLP171 T02720239


Wind From 190°
Speed 05 kn.

 
 
jpsmedia worldairports.se 2020   terms of use